Latest Coastal Weather Observations for Avalon

IDV60701

Issued at 6:02 pm EST Sunday 23 April 2017 (issued every 10 minutes, with the page automatically refreshed every 10 minutes)

About coastal observations | Map of coastal stations | Coastal observations for VIC | Marine services | Other Formats
Station Details ID: 087113 Name: AVALON AIRPORT Lat: -38.03 Lon: 144.48 Height: 10.6 m
Data from the previous 72 hours. | See also: Recent months at Avalon
Date/Time
EST
Temp
°C
Wind Pressure Rain since
9am
mm
Weather Cloud Vis
km
Sea
Height
m
Swell
Dir  Spd
kts
Gust
kts
hPa Trend Height
m
Period
s
Dir
23/06:00pm 17.0 S 12 15 1022.9 - - - Cloudy 45 - - - -
23/05:30pm 17.1 SSW 13 17 1022.8 - 0.0 - Cloudy 10 - - - -
23/05:02pm 17.4 SSW 12 15 1022.7 - 0.0 - Partly cloudy 10 - - - -
23/05:00pm 17.3 S 13 17 1022.6 - 0.0 - Partly cloudy 10 - - - -
23/04:30pm 17.9 SSW 15 17 1022.6 - 0.0 - Partly cloudy 10 - - - -
23/04:00pm 18.8 S 14 16 1022.3 - 0.0 - Partly cloudy 10 - - - -
23/03:30pm 19.3 S 13 15 1022.3 - 0.0 - - 10 - - - -
23/03:00pm 19.6 S 12 13 1022.1 - 0.0 - Partly cloudy 10 - - - -
23/02:30pm 20.3 S 11 14 1022.2 - 0.0 - Partly cloudy 10 - - - -
23/02:00pm 20.5 S 12 16 1022.3 - 0.0 - Partly cloudy 10 - - - -
23/01:30pm 22.7 NW 4 7 1022.4 - 0.0 - Partly cloudy 10 - - - -
23/01:00pm 22.2 NNW 6 12 1022.6 - 0.0 - Partly cloudy 10 - - - -
23/12:30pm 21.5 NW 5 8 1023.0 - 0.0 - Partly cloudy 10 - - - -
23/12:00pm 20.9 NW 6 9 1023.5 - 0.0 - Mostly clear 10 - - - -
23/11:30am 20.7 E 1 4 1023.9 - 0.0 - Partly cloudy 10 - - - -
23/11:00am 18.7 W 4 6 1024.3 - 0.0 - Partly cloudy 10 - - - -
23/10:30am 18.4 WSW 5 6 1024.4 - 0.0 - Partly cloudy 10 - - - -
23/10:10am 18.4 WSW 5 7 1024.5 - 0.0 - Partly cloudy 10 - - - -
23/10:00am 18.5 W 6 8 1024.6 - 0.0 - Partly cloudy 10 - - - -
23/09:33am 18.4 WNW 6 8 1024.7 - 0.0 - Partly cloudy 10 - - - -
23/09:30am 18.5 W 5 7 1024.7 - 0.0 - Partly cloudy 10 - - - -
23/09:00am 17.1 W 6 8 1024.7 - 0.0 - Mostly cloudy 10 - - - -
23/08:30am 16.5 WNW 6 7 1024.6 - 0.0 - Partly cloudy 10 - - - -
23/08:00am 15.6 NW 4 5 1024.3 - 0.0 - - 10 - - - -
23/07:30am 15.2 WNW 6 7 1023.9 - 0.0 - - 10 - - - -
23/07:00am 15.1 WNW 6 7 1023.8 - 0.0 - Partly cloudy 10 - - - -
23/06:30am 15.1 NW 5 7 1023.7 - 0.0 - Cloudy 10 - - - -
23/06:13am 14.7 WNW 4 5 1023.6 - 0.0 - Partly cloudy 10 - - - -
23/06:00am 14.9 NW 5 6 1023.6 - 0.0 - Cloudy 10 - - - -
23/05:36am 14.9 NW 6 7 1023.5 - 0.0 - Partly cloudy 10 - - - -
23/05:30am 14.8 NW 6 7 1023.5 - 0.0 - Partly cloudy 10 - - - -
23/05:22am 14.7 NW 5 7 1023.5 - 0.0 - Partly cloudy 10 - - - -
23/05:00am 14.1 NW 6 6 1023.4 - 0.0 - Partly cloudy 10 - - - -
23/04:53am 14.1 NW 4 6 1023.2 - 0.0 - Partly cloudy 10 - - - -
23/04:30am 14.1 NW 5 6 1023.2 - 0.0 - Partly cloudy 9 - - - -
23/04:00am 14.4 NW 5 6 1023.0 - 0.0 - Partly cloudy 10 - - - -
23/03:30am 15.0 NW 6 7 1023.2 - 0.0 - Partly cloudy 10 - - - -
23/03:00am 16.0 WNW 7 8 1023.2 - 0.0 - Mostly clear 10 - - - -
23/02:30am 16.7 WNW 8 10 1023.3 - 0.0 - Partly cloudy 10 - - - -
23/02:00am 16.9 NW 6 10 1023.5 - 0.0 - Partly cloudy 10 - - - -
23/01:30am 16.6 NNW 4 5 1023.6 - 0.0 - Cloudy 10 - - - -
23/01:00am 16.8 NW 5 6 1023.6 - 0.0 - Cloudy 10 - - - -
23/12:30am 16.9 WNW 5 6 1023.7 - 0.0 - Cloudy 10 - - - -
23/12:00am 16.9 WNW 5 7 1023.7 - 0.0 - Cloudy 10 - - - -
 
Date/Time
EST
Temp
°C
Wind Pressure Rain since
9am
mm
Weather Cloud Vis
km
Sea
Height
m
Swell
Dir  Spd
kts
Gust
kts
hPa Trend Height
m
Period
s
Dir
22/11:30pm 16.9 WNW 7 9 1023.7 - 0.0 - Cloudy 10 - - - -
22/11:00pm 16.7 NW 6 7 1023.9 - 0.0 - Cloudy 10 - - - -
22/10:30pm 16.1 NW 6 7 1023.9 - 0.0 - Partly cloudy 10 - - - -
22/10:00pm 16.5 NW 8 9 1023.7 - 0.0 - Cloudy 10 - - - -
22/09:30pm 16.7 NW 7 7 1023.7 - 0.0 - Cloudy 10 - - - -
22/09:00pm 16.9 NW 7 9 1023.6 - 0.0 - Mostly cloudy 10 - - - -
22/08:30pm 16.7 NW 7 8 1023.5 - 0.0 - Cloudy 10 - - - -
22/08:00pm 16.8 WNW 7 9 1023.3 - 0.0 - Partly cloudy 10 - - - -
22/07:30pm 16.7 W 7 8 1023.2 - 0.0 - Partly cloudy 10 - - - -
22/07:00pm 17.0 W 9 11 1022.8 - 0.0 - Partly cloudy 10 - - - -
22/06:30pm 17.5 WSW 8 9 1022.5 - 0.0 - Partly cloudy 10 - - - -
22/06:00pm 18.3 WSW 9 11 1022.2 - 0.0 - Mostly clear 10 - - - -
22/05:30pm 19.6 WSW 7 9 1021.9 - 0.0 - - 10 - - - -
22/05:00pm 20.6 WSW 10 13 1021.7 - 0.0 - - 10 - - - -
22/04:30pm 21.3 WSW 9 12 1021.5 - 0.0 - - 10 - - - -
22/04:00pm 21.9 W 9 13 1021.3 - 0.0 - Partly cloudy 10 - - - -
22/03:30pm 21.6 W 8 10 1021.2 - 0.0 - Partly cloudy 10 - - - -
22/03:00pm 22.4 W 8 11 1021.2 - 0.0 - Mostly cloudy 10 - - - -
22/02:30pm 21.4 W 9 12 1021.2 - 0.0 - Partly cloudy 10 - - - -
22/02:00pm 21.3 W 6 8 1021.3 - 0.0 - Partly cloudy 10 - - - -
22/01:30pm 22.1 WNW 6 9 1021.5 - 0.0 - Partly cloudy 10 - - - -
22/01:00pm 21.3 W 7 10 1021.8 - 0.0 - Partly cloudy 10 - - - -
22/12:30pm 21.5 W 8 10 1022.2 - 0.0 - Partly cloudy 10 - - - -
22/12:00pm 21.2 WNW 8 11 1022.6 - 0.0 - - 10 - - - -
22/11:30am 19.3 W 10 11 1023.1 - 0.0 - Partly cloudy 10 - - - -
22/11:00am 20.0 WNW 8 13 1023.2 - 0.0 - Partly cloudy 10 - - - -
22/10:30am 19.5 WNW 8 11 1023.3 - 0.0 - Partly cloudy 10 - - - -
22/10:00am 18.8 NW 6 8 1023.4 - 0.0 - Partly cloudy 10 - - - -
22/09:30am 18.4 NNW 5 7 1023.4 - 0.0 - Partly cloudy 10 - - - -
22/09:00am 18.1 NNW 4 5 1023.3 - 4.6 - Cloudy 10 - - - -
22/08:30am 17.2 N 4 5 1023.1 - 4.6 - Partly cloudy 10 - - - -
22/08:00am 16.9 NNE 4 5 1022.9 - 4.6 - Partly cloudy 10 - - - -
22/07:30am 16.6 CALM 0 0 1022.5 - 4.6 - Cloudy 10 - - - -
22/07:00am 16.5 CALM 0 0 1022.2 - 4.6 - Cloudy 10 - - - -
22/06:30am 16.4 CALM 0 0 1022.0 - 4.6 - Partly cloudy 10 - - - -
22/06:00am 16.5 CALM 0 0 1021.9 - 4.4 Drizzle Cloudy 10 - - - -
22/05:30am 16.5 CALM 0 0 1021.5 - 4.4 - Partly cloudy 10 - - - -
22/05:00am 16.5 ENE 4 6 1021.1 - 4.4 - Partly cloudy 10 - - - -
22/04:30am 16.4 ENE 5 6 1021.0 - 4.2 - Cloudy 10 - - - -
22/04:00am 16.5 NE 4 5 1021.0 - 4.2 - Cloudy 10 - - - -
22/03:30am 16.4 NE 4 5 1021.0 - 4.2 - Cloudy 10 - - - -
22/03:00am 16.5 CALM 0 0 1021.1 - 4.2 Drizzle Mostly cloudy 10 - - - -
22/02:30am 16.4 NW 1 4 1021.3 - 4.2 - Cloudy 10 - - - -
22/02:00am 16.5 W 4 6 1021.3 - 4.0 - Cloudy 10 - - - -
22/01:46am 16.5 W 6 8 1021.4 - 4.0 - Cloudy 10 - - - -
22/01:38am 16.6 W 7 9 1021.4 - 4.0 - Cloudy 10 - - - -
22/01:30am 16.7 W 6 8 1021.3 - 4.0 - Partly cloudy 10 - - - -
22/01:18am 16.9 WNW 10 17 1021.4 - 2.8 - Partly cloudy 4 - - - -
22/01:17am 17.0 WNW 11 17 1021.4 - 2.0 - Partly cloudy 6 - - - -
22/01:00am 17.0 NNE 10 13 1020.8 - 0.4 - Partly cloudy 10 - - - -
22/12:30am 16.8 NNE 9 11 1020.9 - 0.4 - Partly cloudy 10 - - - -
22/12:00am 16.8 N 6 8 1021.2 - 0.4 Showers Mostly cloudy 8 - - - -
 
Date/Time
EST
Temp
°C
Wind Pressure Rain since
9am
mm
Weather Cloud Vis
km
Sea
Height
m
Swell
Dir  Spd
kts
Gust
kts
hPa Trend Height
m
Period
s
Dir
21/11:30pm 17.2 NNE 7 9 1021.0 - 0.2 - Cloudy 10 - - - -
21/11:00pm 17.4 N 7 10 1021.1 - 0.2 - Partly cloudy 10 - - - -
21/10:30pm 17.1 NNE 8 11 1021.0 - 0.2 - Partly cloudy 10 - - - -
21/10:00pm 17.0 N 9 12 1020.9 - 0.2 - Partly cloudy 10 - - - -
21/09:30pm 17.1 N 7 9 1020.9 - 0.2 - Partly cloudy 10 - - - -
21/09:00pm 16.8 N 5 7 1020.8 - 0.2 - Mostly clear 10 - - - -
21/08:30pm 17.4 NNE 9 10 1020.5 - 0.2 - Partly cloudy 10 - - - -
21/08:00pm 17.8 N 8 10 1020.3 - 0.2 - Cloudy 10 - - - -
21/07:30pm 18.0 N 8 11 1020.2 - 0.2 - Partly cloudy 10 - - - -
21/07:00pm 18.0 N 10 13 1020.0 - 0.2 - Partly cloudy 10 - - - -
21/06:30pm 18.3 N 10 13 1019.7 - 0.2 - Partly cloudy 10 - - - -
21/06:00pm 18.5 NNE 12 16 1019.2 - 0.2 - Cloudy 10 - - - -
21/05:30pm 18.1 NNE 13 17 1019.1 - 0.2 - Partly cloudy 10 - - - -
21/05:00pm 18.1 NNE 12 16 1018.9 - 0.2 - Partly cloudy 10 - - - -
21/04:30pm 18.2 NNE 17 22 1018.7 - 0.2 - - 10 - - - -
21/04:00pm 18.9 NNE 16 20 1018.6 - 0.2 - Partly cloudy 10 - - - -
21/03:30pm 18.8 NNE 16 22 1018.3 - 0.2 - Cloudy 10 - - - -
21/03:00pm 18.9 NNE 15 20 1018.2 - 0.2 - Cloudy 10 - - - -
21/02:30pm 19.9 NNE 16 20 1018.3 - 0.2 - Partly cloudy 10 - - - -
21/02:00pm 19.5 NNE 16 19 1018.3 - 0.2 - Partly cloudy 10 - - - -
21/01:30pm 19.9 NNE 17 21 1018.4 - 0.2 - Partly cloudy 10 - - - -
21/01:00pm 19.8 NNE 16 22 1018.6 - 0.2 - Partly cloudy 10 - - - -
21/12:30pm 19.2 NNE 14 19 1018.8 - 0.2 - Partly cloudy 10 - - - -
21/12:00pm 20.5 N 13 19 1019.0 - 0.0 Drizzle Cloudy 10 - - - -
21/11:30am 20.8 NNE 16 22 1019.1 - 0.0 - Cloudy 10 - - - -
21/11:00am 19.4 NNE 13 19 1019.3 - 0.0 - Partly cloudy 10 - - - -
21/10:30am 18.7 NE 15 19 1019.3 - 0.0 - Partly cloudy 10 - - - -
21/10:00am 18.2 NE 13 17 1019.5 - 0.0 - Partly cloudy 10 - - - -
21/09:30am 17.9 NE 14 18 1019.7 - 0.0 - Partly cloudy 10 - - - -
21/09:00am 16.9 ENE 13 17 1019.7 - 10.8 Showers Cloudy 10 - - - -
21/08:30am 16.5 ENE 18 21 1019.7 - 10.8 - Partly cloudy 10 - - - -
21/08:00am 16.2 ENE 18 25 1019.7 - 10.8 - Partly cloudy 10 - - - -
21/07:30am 16.3 ENE 16 21 1019.5 - 10.8 - Cloudy 10 - - - -
21/07:24am 16.2 E 16 21 1019.4 - 10.8 - Partly cloudy 10 - - - -
21/07:00am 16.2 E 16 20 1019.3 - 10.6 - Partly cloudy 5 - - - -
21/06:30am 16.3 E 13 16 1019.8 - 9.0 - Partly cloudy 5 - - - -
21/06:25am 16.3 E 13 16 1019.7 - 8.4 - Partly cloudy 6 - - - -
21/06:00am 16.3 E 12 15 1019.7 - 7.0 Rain Cloudy 8 - - - -
21/05:30am 16.2 ENE 13 17 1019.9 - 6.2 - Cloudy 8 - - - -
21/05:00am 16.3 ENE 11 14 1020.1 - 4.0 - Partly cloudy 7 - - - -
21/04:30am 16.4 NE 7 9 1020.2 - 2.4 - Partly cloudy 10 - - - -
21/04:00am 16.4 NE 6 8 1020.2 - 2.2 - Partly cloudy 10 - - - -
21/03:30am 16.9 E 7 11 1020.2 - 2.0 - Partly cloudy 10 - - - -
21/03:00am 16.7 ESE 6 7 1020.3 - 1.6 Rain Cloudy 10 - - - -
21/02:30am 16.5 SE 5 6 1020.7 - 1.2 - Cloudy 8 - - - -
21/02:28am 16.4 SE 5 6 1020.7 - 1.2 - Cloudy 7 - - - -
21/02:11am 16.4 SE 5 6 1021.0 - 1.0 - Cloudy 6 - - - -
21/02:00am 16.5 SE 4 5 1021.1 - 0.8 - Cloudy 8 - - - -
21/01:30am 16.8 SSW 3 5 1021.2 - 0.4 - Partly cloudy 10 - - - -
21/01:00am 17.1 WSW 1 4 1021.3 - 0.2 - Cloudy 9 - - - -
21/12:30am 17.3 WNW 5 6 1021.5 - 0.0 - Cloudy 10 - - - -
21/12:00am 17.6 WNW 4 6 1021.6 - 0.0 Showers Cloudy 10 - - - -
 
Date/Time
EST
Temp
°C
Wind Pressure Rain since
9am
mm
Weather Cloud Vis
km
Sea
Height
m
Swell
Dir  Spd
kts
Gust
kts
hPa Trend Height
m
Period
s
Dir
20/11:30pm 17.3 CALM 0 0 1021.7 - 0.0 - Partly cloudy 10 - - - -
20/11:00pm 17.5 NW 4 7 1021.8 - 0.0 - Cloudy 10 - - - -
20/10:30pm 17.8 W 4 5 1021.9 - 0.0 - Cloudy 10 - - - -
20/10:00pm 17.8 CALM 0 0 1022.1 - 0.0 - Partly cloudy 10 - - - -
20/09:30pm 18.4 CALM 0 0 1022.4 - 0.0 - Cloudy 10 - - - -
20/09:00pm 18.3 CALM 0 0 1022.3 - 0.0 - Mostly cloudy 10 - - - -
20/08:30pm 18.7 CALM 0 0 1022.3 - 0.0 - Partly cloudy 10 - - - -
20/08:00pm 18.7 ESE 4 6 1022.4 - 0.0 - Partly cloudy 10 - - - -
20/07:30pm 19.3 ENE 5 7 1022.4 - 0.0 - Partly cloudy 10 - - - -
20/07:00pm 20.6 NE 4 5 1022.5 - 0.0 - Cloudy 10 - - - -
20/06:30pm 21.0 N 5 6 1022.4 - 0.0 - Cloudy 10 - - - -

Other Formats:

Comma delimited format used in spreadsheet applications
http://www.bom.gov.au/fwo/IDV60701/IDV60701.94854.axf

JavaScript Object Notation format (JSON) in row-major order
http://www.bom.gov.au/fwo/IDV60701/IDV60701.94854.json